Time;durP1;ratioP1;P1;durP2;ratioP2;P2;SDS_P1;SDS_P2;PMS_P1;PMS_P2;Temp;Humidity;BMP_temperature;BMP_pressure;BME280_temperature;BME280_humidity;BME280_pressure;Samples;Min_cycle;Max_cycle;Signal;HPM_P1;HPM_P2
2022/09/24 00:02:59;;;;;;;4.90;3.00;;;;;;;;;;10144767;28;20123;-72
2022/09/24 00:07:53;;;;;;;3.70;3.15;;;;;;;;;;10120711;28;20053;-68
2022/09/24 00:12:47;;;;;;;3.83;3.42;;;;;;;;;;10139378;28;20945;-68
2022/09/24 00:17:41;;;;;;;4.93;3.17;;;;;;;;;;10145575;28;20073;-68
2022/09/24 00:22:35;;;;;;;5.53;3.53;;;;;;;;;;10121209;28;20060;-69
2022/09/24 00:27:29;;;;;;;4.70;3.55;;;;;;;;;;10135184;28;20084;-69
2022/09/24 00:32:24;;;;;;;5.68;3.42;;;;;;;;;;10126608;28;20045;-69
2022/09/24 00:37:20;;;;;;;5.90;2.95;;;;;;;;;;10133904;28;20044;-68
2022/09/24 00:42:13;;;;;;;4.15;3.75;;;;;;;;;;10152780;28;20098;-68
2022/09/24 00:47:39;;;;;;;6.22;3.60;;;;;;;;;;10144175;28;20419;-68
2022/09/24 00:52:35;;;;;;;3.17;2.90;;;;;;;;;;10074973;28;20083;-69
2022/09/24 00:57:30;;;;;;;3.95;3.42;;;;;;;;;;10130606;28;20113;-68
2022/09/24 01:02:24;;;;;;;3.40;3.10;;;;;;;;;;10132788;28;20139;-68
2022/09/24 01:07:18;;;;;;;5.75;2.90;;;;;;;;;;10145484;28;20052;-70
2022/09/24 01:12:32;;;;;;;6.40;2.88;;;;;;;;;;10152338;28;20044;-72
2022/09/24 01:17:38;;;;;;;6.78;2.67;;;;;;;;;;10105523;28;20056;-72
2022/09/24 01:22:56;;;;;;;5.30;3.13;;;;;;;;;;10107903;28;20044;-72
2022/09/24 01:28:23;;;;;;;3.70;2.92;;;;;;;;;;10137397;28;20132;-72
2022/09/24 01:33:19;;;;;;;4.70;2.70;;;;;;;;;;10134317;28;20105;-72
2022/09/24 01:38:16;;;;;;;4.85;2.70;;;;;;;;;;10133691;28;20060;-72
2022/09/24 01:43:11;;;;;;;5.15;3.17;;;;;;;;;;10150660;28;20044;-72
2022/09/24 01:48:04;;;;;;;3.72;2.60;;;;;;;;;;10133583;28;20514;-72
2022/09/24 01:53:02;;;;;;;4.05;2.63;;;;;;;;;;10150751;28;20052;-72
2022/09/24 01:58:02;;;;;;;6.65;2.92;;;;;;;;;;10133313;28;20056;-72
2022/09/24 02:03:10;;;;;;;20.27;5.32;;;;;;;;;;10149800;28;20090;-72
2022/09/24 02:08:21;;;;;;;3.58;3.28;;;;;;;;;;10150753;28;20053;-72
2022/09/24 02:13:17;;;;;;;3.63;2.80;;;;;;;;;;10132152;28;20068;-73
2022/09/24 02:18:15;;;;;;;5.32;2.67;;;;;;;;;;10150041;28;20507;-70
2022/09/24 02:23:10;;;;;;;3.53;2.30;;;;;;;;;;10149619;28;20406;-70
2022/09/24 02:28:04;;;;;;;2.90;2.60;;;;;;;;;;10153657;28;20526;-70
2022/09/24 02:32:59;;;;;;;3.30;2.10;;;;;;;;;;10165255;28;20079;-71
2022/09/24 02:37:54;;;;;;;2.10;1.90;;;;;;;;;;10189699;28;20052;-71
2022/09/24 02:42:49;;;;;;;5.53;2.50;;;;;;;;;;10177854;28;20070;-71
2022/09/24 02:47:44;;;;;;;3.92;1.95;;;;;;;;;;10182272;28;20066;-71
2022/09/24 02:52:38;;;;;;;6.53;3.03;;;;;;;;;;10165586;28;20132;-71
2022/09/24 02:57:33;;;;;;;2.53;1.95;;;;;;;;;;10159672;28;20044;-70
2022/09/24 03:02:27;;;;;;;2.50;2.05;;;;;;;;;;10161395;28;20070;-68
2022/09/24 03:07:22;;;;;;;4.93;2.42;;;;;;;;;;10188653;28;20127;-68
2022/09/24 03:12:16;;;;;;;4.10;2.20;;;;;;;;;;10182941;28;20059;-67
2022/09/24 03:17:09;;;;;;;9.30;2.05;;;;;;;;;;10181251;28;20048;-69
2022/09/24 03:22:04;;;;;;;6.85;2.85;;;;;;;;;;10155441;28;20464;-68
2022/09/24 03:26:58;;;;;;;2.92;2.00;;;;;;;;;;10169255;28;20068;-68
2022/09/24 03:31:52;;;;;;;2.65;2.22;;;;;;;;;;10160723;28;20060;-73
2022/09/24 03:36:46;;;;;;;5.88;2.50;;;;;;;;;;10153463;28;20090;-69
2022/09/24 03:41:40;;;;;;;4.47;2.38;;;;;;;;;;10160767;28;20059;-70
2022/09/24 03:46:34;;;;;;;3.53;2.15;;;;;;;;;;10143120;28;20044;-71
2022/09/24 03:51:27;;;;;;;4.38;3.05;;;;;;;;;;10148243;28;20082;-72
2022/09/24 03:56:20;;;;;;;3.85;2.92;;;;;;;;;;10138910;28;20483;-70
2022/09/24 04:01:19;;;;;;;8.25;3.58;;;;;;;;;;10143403;28;20047;-72
2022/09/24 04:06:14;;;;;;;;;;;;;;;;;;10140149;28;20511;-72
2022/09/24 04:11:07;;;;;;;5.40;2.20;;;;;;;;;;10126292;28;19920;-69
2022/09/24 04:16:03;;;;;;;5.63;2.38;;;;;;;;;;10138088;28;20052;-69
2022/09/24 04:20:59;;;;;;;4.65;3.47;;;;;;;;;;10139919;28;20056;-69
2022/09/24 04:25:53;;;;;;;3.05;2.78;;;;;;;;;;10145776;28;20418;-69
2022/09/24 04:30:46;;;;;;;3.30;3.00;;;;;;;;;;10175579;28;20139;-69
2022/09/24 04:35:40;;;;;;;8.20;3.80;;;;;;;;;;10182189;28;20734;-70
2022/09/24 04:40:35;;;;;;;6.47;3.25;;;;;;;;;;10185932;28;20055;-71
2022/09/24 04:45:29;;;;;;;5.78;3.15;;;;;;;;;;10180713;28;20056;-70
2022/09/24 04:50:24;;;;;;;3.60;2.85;;;;;;;;;;10181560;28;20182;-71
2022/09/24 04:55:19;;;;;;;4.95;3.78;;;;;;;;;;10184926;28;20059;-71
2022/09/24 05:00:16;;;;;;;3.88;3.53;;;;;;;;;;10182208;28;20051;-70
2022/09/24 05:05:12;;;;;;;8.87;4.50;;;;;;;;;;10182329;28;20457;-70
2022/09/24 05:10:08;;;;;;;8.63;3.63;;;;;;;;;;10188493;28;20040;-69
2022/09/24 05:15:02;;;;;;;3.70;2.90;;;;;;;;;;10170821;28;20045;-73
2022/09/24 05:19:58;;;;;;;8.70;3.00;;;;;;;;;;10180797;28;20495;-73
2022/09/24 05:24:52;;;;;;;8.57;3.72;;;;;;;;;;10174858;28;20415;-74
2022/09/24 05:29:45;;;;;;;7.75;3.72;;;;;;;;;;10179982;28;20082;-70
2022/09/24 05:34:40;;;;;;;7.85;4.38;;;;;;;;;;10178214;28;20071;-68
2022/09/24 05:39:33;;;;;;;3.80;3.17;;;;;;;;;;10173472;28;20044;-71
2022/09/24 05:44:27;;;;;;;4.50;3.80;;;;;;;;;;10173114;28;20456;-69
2022/09/24 05:49:20;;;;;;;10.68;4.80;;;;;;;;;;10171244;28;20071;-70
2022/09/24 05:54:15;;;;;;;7.28;4.95;;;;;;;;;;10180151;28;20094;-71
2022/09/24 05:59:08;;;;;;;6.28;4.97;;;;;;;;;;10189909;28;20506;-70
2022/09/24 06:04:01;;;;;;;9.02;5.45;;;;;;;;;;10186858;28;20040;-73
2022/09/24 06:09:01;;;;;;;8.70;5.82;;;;;;;;;;10181381;28;20044;-72
2022/09/24 06:13:54;;;;;;;7.40;5.68;;;;;;;;;;10188503;28;20051;-72
2022/09/24 06:18:48;;;;;;;9.65;6.95;;;;;;;;;;10188923;28;20452;-70
2022/09/24 06:23:44;;;;;;;6.85;6.15;;;;;;;;;;10188376;28;20055;-72
2022/09/24 06:28:37;;;;;;;12.68;6.20;;;;;;;;;;10180761;28;20099;-74
2022/09/24 06:33:31;;;;;;;8.55;6.22;;;;;;;;;;10170027;28;20083;-75
2022/09/24 06:38:26;;;;;;;9.30;5.72;;;;;;;;;;10179833;28;20146;-76
2022/09/24 06:43:19;;;;;;;8.15;6.82;;;;;;;;;;10183039;28;20083;-75
2022/09/24 06:48:13;;;;;;;9.35;6.88;;;;;;;;;;10177371;28;20419;-73
2022/09/24 06:53:07;;;;;;;14.23;8.18;;;;;;;;;;9981615;28;20064;-68
2022/09/24 06:58:03;;;;;;;8.90;7.38;;;;;;;;;;10095977;28;20471;-70
2022/09/24 07:02:57;;;;;;;8.38;6.40;;;;;;;;;;10100994;28;20045;-68
2022/09/24 07:07:50;;;;;;;6.90;6.18;;;;;;;;;;10101916;28;20434;-67
2022/09/24 07:12:45;;;;;;;9.48;7.50;;;;;;;;;;10096167;28;20528;-67
2022/09/24 07:17:39;;;;;;;8.98;7.63;;;;;;;;;;10106957;28;20128;-64
2022/09/24 07:22:38;;;;;;;9.50;7.45;;;;;;;;;;10097934;28;20049;-65
2022/09/24 07:27:32;;;;;;;8.55;7.45;;;;;;;;;;10097804;28;20053;-65
2022/09/24 07:32:26;;;;;;;11.27;6.55;;;;;;;;;;10063610;28;20069;-69
2022/09/24 07:37:22;;;;;;;6.28;5.68;;;;;;;;;;10059572;28;20052;-68
2022/09/24 07:42:17;;;;;;;10.82;7.13;;;;;;;;;;10058332;28;20062;-69
2022/09/24 07:47:10;;;;;;;7.18;5.93;;;;;;;;;;10055043;28;20089;-66
2022/09/24 07:52:08;;;;;;;7.85;4.88;;;;;;;;;;10059849;28;20137;-66
2022/09/24 07:57:03;;;;;;;7.82;3.88;;;;;;;;;;10056123;28;20051;-69
2022/09/24 08:01:58;;;;;;;7.18;4.20;;;;;;;;;;10049009;28;20111;-69
2022/09/24 08:06:51;;;;;;;5.50;5.00;;;;;;;;;;10049783;28;20045;-68
2022/09/24 08:11:45;;;;;;;10.27;9.32;;;;;;;;;;10055635;28;20056;-68
2022/09/24 08:16:40;;;;;;;9.98;6.40;;;;;;;;;;10046155;28;20514;-66
2022/09/24 08:21:34;;;;;;;10.95;7.72;;;;;;;;;;10065058;28;20052;-66
2022/09/24 08:26:27;;;;;;;14.15;9.13;;;;;;;;;;10059795;28;20554;-66
2022/09/24 08:31:22;;;;;;;14.50;7.38;;;;;;;;;;10089621;28;20132;-66
2022/09/24 08:36:16;;;;;;;6.70;6.00;;;;;;;;;;10107564;28;20471;-66
2022/09/24 08:41:12;;;;;;;10.63;6.00;;;;;;;;;;10109226;28;20068;-66
2022/09/24 08:52:32;;;;;;;10.05;6.95;;;;;;;;;;10103508;28;20404;-68
2022/09/24 08:57:28;;;;;;;13.30;7.72;;;;;;;;;;10107148;28;20087;-67
2022/09/24 09:02:29;;;;;;;15.05;8.55;;;;;;;;;;10107794;28;20041;-67
2022/09/24 09:07:25;;;;;;;8.98;7.25;;;;;;;;;;10111709;28;20537;-67
2022/09/24 09:12:29;;;;;;;5.82;5.22;;;;;;;;;;10091070;28;20052;-66
2022/09/24 09:17:41;;;;;;;5.38;4.15;;;;;;;;;;10107511;28;20051;-67
2022/09/24 09:22:41;;;;;;;9.52;3.65;;;;;;;;;;10107646;28;20084;-65
2022/09/24 09:27:35;;;;;;;11.75;3.72;;;;;;;;;;10100390;28;20044;-66
2022/09/24 09:33:00;;;;;;;6.32;3.13;;;;;;;;;;10110340;28;20099;-67
2022/09/24 09:37:54;;;;;;;9.10;4.15;;;;;;;;;;10085075;28;20053;-66
2022/09/24 09:43:12;;;;;;;9.60;5.15;;;;;;;;;;10098876;28;20046;-70
2022/09/24 09:48:11;;;;;;;5.35;4.78;;;;;;;;;;10097266;28;20107;-81
2022/09/24 09:53:05;;;;;;;9.45;4.03;;;;;;;;;;10093078;28;20045;-65
2022/09/24 09:58:21;;;;;;;6.93;3.97;;;;;;;;;;10099552;28;20048;-63
2022/09/24 10:03:27;;;;;;;8.40;3.50;;;;;;;;;;10100767;28;20050;-63
2022/09/24 10:08:24;;;;;;;15.68;4.18;;;;;;;;;;10103670;28;20456;-64
2022/09/24 10:13:18;;;;;;;8.50;3.42;;;;;;;;;;10108952;28;20499;-64
2022/09/24 10:18:12;;;;;;;4.40;3.65;;;;;;;;;;10109201;28;20053;-64
2022/09/24 10:23:07;;;;;;;5.45;3.85;;;;;;;;;;10085045;28;20053;-64
2022/09/24 10:33:20;;;;;;;11.40;4.38;;;;;;;;;;10064043;28;20057;-67
2022/09/24 10:38:33;;;;;;;5.78;4.18;;;;;;;;;;10049661;28;20119;-67
2022/09/24 10:43:27;;;;;;;10.65;4.78;;;;;;;;;;10045954;28;20073;-74
2022/09/24 10:48:25;;;;;;;14.30;5.38;;;;;;;;;;10055670;28;20416;-73
2022/09/24 10:53:41;;;;;;;10.10;4.70;;;;;;;;;;10053846;28;20136;-76
2022/09/24 10:59:12;;;;;;;12.38;4.13;;;;;;;;;;10054343;28;20112;-77
2022/09/24 11:04:19;;;;;;;9.60;4.95;;;;;;;;;;10046726;28;20053;-75
2022/09/24 11:09:22;;;;;;;9.73;4.43;;;;;;;;;;10042771;28;20057;-71
2022/09/24 11:14:26;;;;;;;7.43;3.45;;;;;;;;;;10054070;28;20046;-68
2022/09/24 11:19:31;;;;;;;5.93;3.92;;;;;;;;;;10053143;28;20045;-66
2022/09/24 11:24:36;;;;;;;6.30;4.00;;;;;;;;;;10051480;28;20144;-64
2022/09/24 11:29:41;;;;;;;6.93;3.50;;;;;;;;;;10060055;28;20057;-64
2022/09/24 11:34:49;;;;;;;6.57;4.25;;;;;;;;;;10079354;28;20065;-65
2022/09/24 11:40:04;;;;;;;6.47;4.40;;;;;;;;;;10087535;28;20049;-66
2022/09/24 11:45:33;;;;;;;9.73;4.63;;;;;;;;;;10094212;28;20059;-66
2022/09/24 11:50:53;;;;;;;11.27;4.38;;;;;;;;;;10090174;28;20049;-65
2022/09/24 11:55:53;;;;;;;12.80;6.22;;;;;;;;;;10089722;28;20128;-65
2022/09/24 12:00:58;;;;;;;9.10;7.38;;;;;;;;;;10071893;28;20052;-65
2022/09/24 12:06:04;;;;;;;14.10;7.90;;;;;;;;;;10096814;28;20065;-67
2022/09/24 12:11:08;;;;;;;11.27;8.85;;;;;;;;;;10091659;28;20059;-65
2022/09/24 12:16:10;;;;;;;11.80;8.38;;;;;;;;;;10064696;28;20766;-67
2022/09/24 12:21:13;;;;;;;9.65;7.68;;;;;;;;;;10072775;28;20514;-67
2022/09/24 12:26:05;;;;;;;11.95;8.05;;;;;;;;;;10077951;28;20049;-63
2022/09/24 12:36:19;;;;;;;12.77;8.90;;;;;;;;;;10093522;28;20492;-65
2022/09/24 12:41:32;;;;;;;7.50;6.65;;;;;;;;;;10085905;28;20045;-68
2022/09/24 12:46:29;;;;;;;12.02;7.78;;;;;;;;;;10090080;28;20484;-66
2022/09/24 12:51:22;;;;;;;11.20;8.43;;;;;;;;;;10068226;28;20045;-68
2022/09/24 12:56:23;;;;;;;11.93;8.13;;;;;;;;;;10093101;28;20500;-71
2022/09/24 13:01:23;;;;;;;14.05;8.38;;;;;;;;;;10084873;28;20408;-67
2022/09/24 13:06:36;;;;;;;10.15;8.35;;;;;;;;;;10092890;28;20091;-68
2022/09/24 13:11:32;;;;;;;11.05;8.27;;;;;;;;;;10087629;28;20056;-68
2022/09/24 13:16:26;;;;;;;9.07;7.10;;;;;;;;;;10072524;28;20053;-67
2022/09/24 13:21:25;;;;;;;14.05;8.93;;;;;;;;;;10090205;28;20099;-68
2022/09/24 13:26:33;;;;;;;12.32;7.95;;;;;;;;;;10092687;28;20049;-67
2022/09/24 13:31:43;;;;;;;11.05;7.82;;;;;;;;;;10061732;28;20057;-67
2022/09/24 13:36:39;;;;;;;11.00;8.50;;;;;;;;;;10060648;28;20088;-65
2022/09/24 13:42:00;;;;;;;11.48;9.25;;;;;;;;;;10053823;28;20077;-66
2022/09/24 13:47:01;;;;;;;9.68;8.77;;;;;;;;;;10055660;28;20458;-68
2022/09/24 13:52:33;;;;;;;10.93;8.60;;;;;;;;;;10038018;28;21561;-68
2022/09/24 13:57:28;;;;;;;8.55;7.68;;;;;;;;;;10040107;28;20065;-68
2022/09/24 14:02:27;;;;;;;8.70;7.80;;;;;;;;;;10063307;28;20071;-68
2022/09/24 14:07:21;;;;;;;9.07;7.83;;;;;;;;;;10068644;28;20088;-68
2022/09/24 14:12:20;;;;;;;9.95;8.35;;;;;;;;;;10054844;28;20045;-68
2022/09/24 14:17:15;;;;;;;8.70;7.85;;;;;;;;;;10067123;28;20049;-67
2022/09/24 14:22:25;;;;;;;10.13;9.13;;;;;;;;;;10065977;28;20103;-68
2022/09/24 14:27:20;;;;;;;12.75;9.10;;;;;;;;;;10055641;28;20041;-65
2022/09/24 14:32:38;;;;;;;10.82;9.35;;;;;;;;;;10094236;28;20049;-66
2022/09/24 14:37:34;;;;;;;10.75;8.88;;;;;;;;;;10083048;28;20056;-67
2022/09/24 14:42:35;;;;;;;;;;;;;;;;;;10101031;28;20045;-67
2022/09/24 14:47:32;;;;;;;16.13;10.73;;;;;;;;;;10082309;28;19921;-67
2022/09/24 14:52:29;;;;;;;13.23;9.83;;;;;;;;;;10089838;28;20120;-67
2022/09/24 14:57:24;;;;;;;10.75;9.75;;;;;;;;;;10094682;28;20057;-66
2022/09/24 15:02:24;;;;;;;11.45;10.32;;;;;;;;;;10094928;28;20439;-67
2022/09/24 15:07:22;;;;;;;12.45;9.00;;;;;;;;;;10075059;28;20055;-68
2022/09/24 15:12:37;;;;;;;11.43;8.70;;;;;;;;;;10085052;28;20080;-67
2022/09/24 15:17:32;;;;;;;10.00;9.00;;;;;;;;;;10092255;28;20048;-67
2022/09/24 15:22:26;;;;;;;12.30;9.38;;;;;;;;;;10098966;28;20098;-67
2022/09/24 15:27:30;;;;;;;9.77;8.95;;;;;;;;;;10089035;28;20574;-67
2022/09/24 15:32:29;;;;;;;11.80;9.50;;;;;;;;;;10083578;28;20049;-68
2022/09/24 15:37:25;;;;;;;10.65;9.57;;;;;;;;;;10095670;28;20072;-67
2022/09/24 15:42:20;;;;;;;12.07;9.95;;;;;;;;;;10089969;28;20396;-67
2022/09/24 15:47:18;;;;;;;11.07;9.98;;;;;;;;;;10088472;28;20056;-68
2022/09/24 15:52:41;;;;;;;16.08;11.48;;;;;;;;;;10091713;28;20072;-67
2022/09/24 15:57:42;;;;;;;14.00;10.45;;;;;;;;;;10071674;28;20052;-68
2022/09/24 16:02:36;;;;;;;13.77;9.55;;;;;;;;;;10093379;28;20041;-68
2022/09/24 16:07:29;;;;;;;12.45;10.90;;;;;;;;;;10073526;28;20059;-68
2022/09/24 16:12:26;;;;;;;11.13;10.02;;;;;;;;;;10084550;28;20041;-68
2022/09/24 16:17:20;;;;;;;13.55;10.75;;;;;;;;;;10077412;28;20049;-66
2022/09/24 16:22:15;;;;;;;11.15;10.05;;;;;;;;;;10089318;28;20049;-67
2022/09/24 16:27:12;;;;;;;13.90;11.88;;;;;;;;;;10092852;28;20545;-66
2022/09/24 16:32:04;;;;;;;12.68;11.27;;;;;;;;;;10068583;28;20131;-65
2022/09/24 16:36:59;;;;;;;13.10;11.10;;;;;;;;;;10084447;28;20416;-66
2022/09/24 16:41:53;;;;;;;12.80;11.60;;;;;;;;;;10088060;28;20048;-65
2022/09/24 16:46:47;;;;;;;15.20;11.68;;;;;;;;;;10100325;28;20053;-65
2022/09/24 16:51:42;;;;;;;13.80;12.05;;;;;;;;;;10087654;28;20144;-66
2022/09/24 16:56:37;;;;;;;15.65;11.27;;;;;;;;;;10088216;28;20493;-67
2022/09/24 17:01:31;;;;;;;15.18;12.00;;;;;;;;;;10096500;28;20547;-67
2022/09/24 17:06:26;;;;;;;13.35;11.75;;;;;;;;;;10082446;28;20468;-66
2022/09/24 17:11:20;;;;;;;14.63;12.60;;;;;;;;;;10103173;28;20049;-66
2022/09/24 17:16:15;;;;;;;13.18;10.85;;;;;;;;;;10093780;28;20048;-67
2022/09/24 17:21:10;;;;;;;20.75;11.75;;;;;;;;;;10101105;28;20223;-68
2022/09/24 17:26:12;;;;;;;16.73;11.45;;;;;;;;;;10095323;28;20456;-65
2022/09/24 17:31:07;;;;;;;13.48;12.05;;;;;;;;;;10103111;28;20060;-67
2022/09/24 17:36:04;;;;;;;15.07;12.20;;;;;;;;;;10091350;28;20053;-65
2022/09/24 17:41:04;;;;;;;15.20;13.70;;;;;;;;;;10093793;28;20053;-65
2022/09/24 17:46:03;;;;;;;13.85;11.55;;;;;;;;;;10087051;28;20041;-68
2022/09/24 17:51:13;;;;;;;14.00;12.57;;;;;;;;;;10091685;28;20124;-66
2022/09/24 17:56:11;;;;;;;12.38;10.65;;;;;;;;;;10087647;28;20044;-65
2022/09/24 18:01:19;;;;;;;13.75;12.45;;;;;;;;;;10089654;28;20061;-65
2022/09/24 18:06:14;;;;;;;13.93;12.52;;;;;;;;;;10077257;28;20077;-65
2022/09/24 18:11:16;;;;;;;13.20;11.93;;;;;;;;;;10080172;28;20107;-63
2022/09/24 18:16:31;;;;;;;14.02;11.95;;;;;;;;;;10075374;28;20040;-65
2022/09/24 18:21:24;;;;;;;13.48;11.75;;;;;;;;;;10089218;28;20045;-65
2022/09/24 18:26:20;;;;;;;12.20;10.98;;;;;;;;;;10102759;28;20430;-67
2022/09/24 18:31:14;;;;;;;14.45;13.02;;;;;;;;;;10094569;28;20057;-65
2022/09/24 18:36:11;;;;;;;18.35;12.88;;;;;;;;;;10080712;28;20128;-65
2022/09/24 18:41:12;;;;;;;14.60;12.90;;;;;;;;;;10080505;28;20053;-64
2022/09/24 18:46:08;;;;;;;15.10;13.48;;;;;;;;;;10088395;28;20060;-64
2022/09/24 18:51:04;;;;;;;14.95;11.95;;;;;;;;;;10066468;28;20046;-62
2022/09/24 18:56:03;;;;;;;16.02;14.25;;;;;;;;;;10049980;28;20041;-62
2022/09/24 19:00:57;;;;;;;;;;;;;;;;;;10050877;28;20140;-62
2022/09/24 19:05:51;;;;;;;14.57;13.07;;;;;;;;;;10053059;28;19925;-62
2022/09/24 19:10:46;;;;;;;16.13;14.60;;;;;;;;;;10059392;28;20065;-62
2022/09/24 19:15:41;;;;;;;15.30;13.70;;;;;;;;;;10049908;28;20100;-62
2022/09/24 19:20:45;;;;;;;16.55;14.95;;;;;;;;;;10055465;28;20045;-62
2022/09/24 19:25:42;;;;;;;15.88;14.32;;;;;;;;;;10048562;28;20107;-68
2022/09/24 19:30:48;;;;;;;17.02;15.45;;;;;;;;;;10074054;28;20061;-60
2022/09/24 19:35:55;;;;;;;21.02;15.82;;;;;;;;;;10087793;28;20052;-60
2022/09/24 19:41:01;;;;;;;18.27;16.02;;;;;;;;;;10095056;28;20052;-60
2022/09/24 19:46:04;;;;;;;18.17;16.38;;;;;;;;;;10086748;28;20075;-61
2022/09/24 19:51:02;;;;;;;18.20;16.40;;;;;;;;;;10092449;28;20053;-60
2022/09/24 19:56:19;;;;;;;18.63;16.70;;;;;;;;;;10093161;28;20120;-61
2022/09/24 20:01:16;;;;;;;17.42;15.63;;;;;;;;;;10080159;28;20439;-61
2022/09/24 20:06:18;;;;;;;21.20;18.40;;;;;;;;;;10092005;28;20063;-61
2022/09/24 20:11:14;;;;;;;20.05;16.73;;;;;;;;;;10093046;28;20088;-61
2022/09/24 20:16:08;;;;;;;18.95;17.17;;;;;;;;;;10076746;28;20079;-61
2022/09/24 20:21:05;;;;;;;21.58;19.38;;;;;;;;;;10091038;28;20385;-60
2022/09/24 20:31:13;;;;;;;19.98;18.02;;;;;;;;;;10091308;28;20063;-60
2022/09/24 20:36:09;;;;;;;20.10;18.02;;;;;;;;;;10095449;28;20053;-62
2022/09/24 20:41:12;;;;;;;21.98;19.83;;;;;;;;;;10098126;28;20049;-62
2022/09/24 20:46:09;;;;;;;22.15;19.85;;;;;;;;;;10095714;28;20057;-61
2022/09/24 20:51:10;;;;;;;21.60;19.13;;;;;;;;;;10095491;28;20099;-62
2022/09/24 20:56:05;;;;;;;21.98;19.75;;;;;;;;;;10081229;28;20076;-63
2022/09/24 21:00:59;;;;;;;21.50;19.20;;;;;;;;;;10097492;28;20048;-62
2022/09/24 21:06:01;;;;;;;21.63;19.23;;;;;;;;;;10095536;28;20501;-62
2022/09/24 21:11:00;;;;;;;20.10;18.02;;;;;;;;;;10095183;28;20121;-62
2022/09/24 21:16:02;;;;;;;22.88;20.40;;;;;;;;;;10092285;28;20593;-63
2022/09/24 21:21:02;;;;;;;21.58;19.58;;;;;;;;;;10102357;28;20526;-63
2022/09/24 21:25:55;;;;;;;;;;;;;;;;;;10095601;28;20492;-62
2022/09/24 21:30:56;;;;;;;22.17;17.52;;;;;;;;;;10103360;28;19921;-62
2022/09/24 21:35:51;;;;;;;22.65;15.07;;;;;;;;;;10092307;28;20057;-62
2022/09/24 21:40:52;;;;;;;16.83;13.25;;;;;;;;;;10089663;28;20420;-61
2022/09/24 21:45:46;;;;;;;15.80;14.13;;;;;;;;;;10088494;28;20492;-62
2022/09/24 21:50:40;;;;;;;13.38;12.18;;;;;;;;;;10088516;28;20514;-62
2022/09/24 21:55:34;;;;;;;12.65;11.45;;;;;;;;;;10092470;28;20053;-63
2022/09/24 22:00:29;;;;;;;12.85;11.55;;;;;;;;;;10092276;28;20140;-63
2022/09/24 22:05:23;;;;;;;13.57;12.25;;;;;;;;;;10091221;28;20049;-64
2022/09/24 22:10:17;;;;;;;17.25;15.27;;;;;;;;;;10091916;28;20049;-63
2022/09/24 22:15:11;;;;;;;17.65;15.93;;;;;;;;;;10101126;28;20056;-63
2022/09/24 22:20:06;;;;;;;15.57;13.98;;;;;;;;;;10091098;28;20045;-64
2022/09/24 22:25:00;;;;;;;12.70;11.40;;;;;;;;;;10100290;28;20099;-64
2022/09/24 22:29:55;;;;;;;12.65;11.55;;;;;;;;;;10094777;28;20049;-64
2022/09/24 22:40:01;;;;;;;16.70;15.00;;;;;;;;;;10095397;28;20041;-63
2022/09/24 22:44:57;;;;;;;18.42;16.70;;;;;;;;;;10094157;28;20452;-64
2022/09/24 22:49:50;;;;;;;19.17;17.38;;;;;;;;;;10093792;28;20045;-63
2022/09/24 22:54:44;;;;;;;18.73;16.88;;;;;;;;;;10092488;28;20053;-64
2022/09/24 22:59:38;;;;;;;17.58;15.77;;;;;;;;;;10100128;28;21791;-63
2022/09/24 23:04:32;;;;;;;16.05;14.55;;;;;;;;;;10103049;28;20087;-64
2022/09/24 23:09:26;;;;;;;18.83;16.92;;;;;;;;;;10107710;28;20053;-64
2022/09/24 23:14:20;;;;;;;19.20;17.50;;;;;;;;;;10105778;28;20041;-64
2022/09/24 23:19:17;;;;;;;19.33;17.27;;;;;;;;;;10104182;28;20063;-64
2022/09/24 23:24:16;;;;;;;19.52;17.70;;;;;;;;;;10101298;28;20045;-65
2022/09/24 23:29:09;;;;;;;20.15;18.33;;;;;;;;;;10081682;28;20508;-65
2022/09/24 23:34:05;;;;;;;21.05;19.10;;;;;;;;;;10067638;28;20045;-65
2022/09/24 23:39:00;;;;;;;20.48;18.60;;;;;;;;;;10061480;28;20076;-65
2022/09/24 23:43:54;;;;;;;20.00;18.02;;;;;;;;;;10050748;28;20046;-64
2022/09/24 23:48:48;;;;;;;18.65;16.88;;;;;;;;;;10055272;28;20046;-64
2022/09/24 23:53:43;;;;;;;17.60;16.10;;;;;;;;;;10053359;28;20057;-64
2022/09/24 23:58:36;;;;;;;16.13;14.63;;;;;;;;;;10061090;28;20387;-64
